Maida Hill, United Kingdom
Current Conditions -  °F | °C
As of 11:50 PM on Friday 19 Dec 2014 (Local Time) from EGLC Reporting Station
Clear Clear  
Wind Chill: 37°   Ceiling: Unl
Heat Index: 45°   Visibility: 6mi
Dew Point: 36°   Wind: 16mph
Humidity: 71%   Direction: 250°WSW
Pressure: 30.21"   Gusts: NA
Location:  51.52°N, 0.18°W
Report Text: EGLC 192350Z AUTO 25014KT 9999 NCD 07/02 Q1023
Loading
Personal Weather Stations






























Interactive Weather Map New forecast layout! Learn more

10-Day Weather Forecast

Advertisements
Track Severe Weather on mobile